createdAt,value
2022-10-22T00:00:13.762Z,78.89
2022-10-22T00:02:41.161Z,79.17
2022-10-22T00:05:08.655Z,78.93
2022-10-22T00:07:35.735Z,79.20
2022-10-22T00:10:05.001Z,79.23
2022-10-22T00:12:31.988Z,79.11
2022-10-22T00:17:25.965Z,78.83
2022-10-22T00:19:53.062Z,78.99
2022-10-22T00:22:20.122Z,79.36
2022-10-22T00:24:47.241Z,79.42
2022-10-22T00:27:14.721Z,78.98
2022-10-22T00:29:41.752Z,79.26
2022-10-22T00:32:09.078Z,79.15
2022-10-22T00:34:36.753Z,79.39
2022-10-22T00:37:03.780Z,79.16
2022-10-22T00:39:31.061Z,79.29
2022-10-22T00:41:58.564Z,79.18
2022-10-22T00:45:03.067Z,79.06
2022-10-22T00:48:05.191Z,79.68
2022-10-22T00:50:44.205Z,79.60
2022-10-22T00:53:15.194Z,79.43
2022-10-22T00:55:43.575Z,79.20
2022-10-22T00:58:10.683Z,79.45
2022-10-22T01:00:37.762Z,79.68
2022-10-22T01:03:05.181Z,79.26
2022-10-22T01:05:38.862Z,79.25
2022-10-22T01:11:06.969Z,79.29
2022-10-22T01:13:56.518Z,79.31
2022-10-22T01:16:54.057Z,79.61
2022-10-22T01:19:39.547Z,79.63
2022-10-22T01:22:12.834Z,79.25
2022-10-22T01:24:52.743Z,79.42
2022-10-22T01:27:46.136Z,79.24
2022-10-22T01:30:15.148Z,79.18
2022-10-22T01:32:47.054Z,79.59
2022-10-22T01:35:18.230Z,79.37
2022-10-22T01:38:06.504Z,79.60
2022-10-22T01:40:33.997Z,79.42
2022-10-22T01:43:06.664Z,79.55
2022-10-22T01:45:36.876Z,79.22
2022-10-22T01:48:12.865Z,79.46
2022-10-22T01:50:52.035Z,79.42
2022-10-22T01:53:27.707Z,79.50
2022-10-22T01:56:36.599Z,79.62
2022-10-22T01:59:25.424Z,79.46
2022-10-22T02:02:18.453Z,79.56
2022-10-22T02:04:50.709Z,79.59
2022-10-22T02:07:22.021Z,79.45
2022-10-22T02:09:50.156Z,79.74
2022-10-22T02:12:18.232Z,79.56
2022-10-22T02:14:45.886Z,79.51
2022-10-22T02:17:16.912Z,80.06
2022-10-22T02:20:13.516Z,79.83
2022-10-22T02:22:42.078Z,79.51
2022-10-22T02:25:11.287Z,79.53
2022-10-22T02:27:44.953Z,79.61
2022-10-22T02:30:19.735Z,80.00
2022-10-22T02:33:11.363Z,79.50
2022-10-22T02:35:40.904Z,80.02
2022-10-22T02:38:08.143Z,79.62
2022-10-22T02:40:35.180Z,79.48
2022-10-22T02:43:04.823Z,79.71
2022-10-22T02:45:32.084Z,79.94
2022-10-22T02:47:59.276Z,79.78
2022-10-22T02:50:26.472Z,80.02
2022-10-22T02:52:53.398Z,79.75
2022-10-22T02:55:20.326Z,79.70
2022-10-22T02:57:47.435Z,79.86
2022-10-22T03:00:15.119Z,79.85
2022-10-22T03:02:42.128Z,79.95
2022-10-22T03:05:09.534Z,79.86
2022-10-22T03:07:36.535Z,80.19
2022-10-22T03:10:04.134Z,80.24
2022-10-22T03:12:31.314Z,79.77
2022-10-22T03:14:58.231Z,80.16
2022-10-22T03:17:25.296Z,80.18
2022-10-22T03:19:52.173Z,80.41
2022-10-22T03:22:25.365Z,80.66
2022-10-22T03:24:55.443Z,80.25
2022-10-22T03:27:23.223Z,80.41
2022-10-22T03:29:51.555Z,80.19
2022-10-22T03:32:18.930Z,80.00
2022-10-22T03:34:45.904Z,80.28
2022-10-22T03:37:12.944Z,80.29
2022-10-22T03:39:40.249Z,80.09
2022-10-22T03:42:08.012Z,80.50
2022-10-22T03:44:37.644Z,80.43
2022-10-22T03:47:05.262Z,80.17
2022-10-22T03:49:32.492Z,80.75
2022-10-22T03:52:09.062Z,80.36
2022-10-22T03:57:05.437Z,80.39
2022-10-22T03:59:39.343Z,80.69
2022-10-22T04:02:06.454Z,80.80
2022-10-22T04:04:33.605Z,80.21
2022-10-22T04:07:00.603Z,80.31
2022-10-22T04:09:27.567Z,80.50
2022-10-22T04:11:54.502Z,80.44
2022-10-22T04:14:21.431Z,80.38
2022-10-22T04:16:48.701Z,80.47
2022-10-22T04:19:15.643Z,80.46
2022-10-22T04:21:42.555Z,80.72
2022-10-22T04:24:09.851Z,80.54
2022-10-22T04:26:36.824Z,80.44
2022-10-22T04:29:04.030Z,80.65
2022-10-22T04:31:30.927Z,80.35
2022-10-22T04:33:59.793Z,80.61
2022-10-22T04:36:27.840Z,80.39
2022-10-22T04:38:59.944Z,80.69
2022-10-22T04:41:32.912Z,80.50
2022-10-22T04:44:00.284Z,80.74
2022-10-22T04:46:29.036Z,80.78
2022-10-22T04:48:56.080Z,80.44
2022-10-22T04:51:24.354Z,80.61
2022-10-22T04:53:51.780Z,80.68
2022-10-22T04:56:25.133Z,80.58
2022-10-22T04:58:54.934Z,81.02
2022-10-22T05:01:28.514Z,80.79
2022-10-22T05:03:57.104Z,80.80
2022-10-22T05:06:25.063Z,80.98
2022-10-22T05:08:57.482Z,80.45
2022-10-22T05:11:28.393Z,80.65
2022-10-22T05:13:59.728Z,80.65
2022-10-22T05:16:28.908Z,80.72
2022-10-22T05:18:57.730Z,80.81
2022-10-22T05:21:25.084Z,80.81
2022-10-22T05:23:55.182Z,80.59
2022-10-22T05:26:23.878Z,80.58
2022-10-22T05:28:51.348Z,80.55
2022-10-22T05:31:19.049Z,80.89
2022-10-22T05:33:46.909Z,80.97
2022-10-22T05:36:17.121Z,80.61
2022-10-22T05:38:44.095Z,80.72
2022-10-22T05:41:19.128Z,80.95
2022-10-22T05:43:46.657Z,80.79
2022-10-22T05:46:21.281Z,80.66
2022-10-22T05:48:53.500Z,80.86
2022-10-22T05:51:21.104Z,81.06
2022-10-22T05:53:54.510Z,80.75
2022-10-22T05:56:22.043Z,81.02
2022-10-22T05:58:49.534Z,80.69
2022-10-22T06:01:31.382Z,80.78
2022-10-22T06:04:05.144Z,80.81
2022-10-22T06:06:35.385Z,80.74
2022-10-22T06:09:30.527Z,81.00
2022-10-22T06:11:58.405Z,81.21
2022-10-22T06:14:26.953Z,80.82
2022-10-22T06:16:54.978Z,80.69
2022-10-22T06:19:23.123Z,81.08
2022-10-22T06:21:50.103Z,81.12
2022-10-22T06:24:17.027Z,81.03
2022-10-22T06:26:44.271Z,80.91
2022-10-22T06:29:11.667Z,81.07
2022-10-22T06:31:38.715Z,81.03
2022-10-22T06:34:08.019Z,81.36
2022-10-22T06:36:35.129Z,80.56
2022-10-22T06:39:02.543Z,81.14
2022-10-22T06:41:29.799Z,81.01
2022-10-22T06:43:57.965Z,80.73
2022-10-22T06:46:25.414Z,80.99
2022-10-22T06:48:54.584Z,81.04
2022-10-22T06:51:21.644Z,81.42
2022-10-22T06:53:49.295Z,80.65
2022-10-22T06:56:19.500Z,80.92
2022-10-22T06:58:55.022Z,81.30
2022-10-22T07:01:27.662Z,80.82
2022-10-22T07:03:55.023Z,81.24
2022-10-22T07:06:23.362Z,80.98
2022-10-22T07:08:50.990Z,80.99
2022-10-22T07:11:40.755Z,80.80
2022-10-22T07:14:08.017Z,81.15
2022-10-22T07:16:34.912Z,80.71
2022-10-22T07:19:02.659Z,80.61
2022-10-22T07:21:30.420Z,81.16
2022-10-22T07:23:57.904Z,80.88
2022-10-22T07:26:25.570Z,80.77
2022-10-22T07:28:52.793Z,81.02
2022-10-22T07:31:20.162Z,81.11
2022-10-22T07:33:47.269Z,81.27
2022-10-22T07:36:18.128Z,81.08
2022-10-22T07:38:49.650Z,81.04
2022-10-22T07:41:17.668Z,81.01
2022-10-22T07:43:45.182Z,80.65
2022-10-22T07:46:12.409Z,80.96
2022-10-22T07:48:40.002Z,80.58
2022-10-22T07:51:07.746Z,80.33
2022-10-22T07:53:34.923Z,80.78
2022-10-22T07:56:01.933Z,81.03
2022-10-22T07:58:28.963Z,80.85
2022-10-22T08:00:57.677Z,80.93
2022-10-22T08:03:24.790Z,80.44
2022-10-22T08:05:52.113Z,81.01
2022-10-22T08:08:19.552Z,81.18
2022-10-22T08:10:47.422Z,80.91
2022-10-22T08:13:14.915Z,80.68
2022-10-22T08:18:10.585Z,81.26
2022-10-22T08:20:37.488Z,80.68
2022-10-22T08:23:04.646Z,81.08
2022-10-22T08:25:31.713Z,80.94
2022-10-22T08:27:58.796Z,80.63
2022-10-22T08:30:28.031Z,80.53
2022-10-22T08:32:55.104Z,80.70
2022-10-22T08:35:22.572Z,80.71
2022-10-22T08:37:49.642Z,80.60
2022-10-22T08:40:38.832Z,80.34
2022-10-22T08:43:22.111Z,80.50
2022-10-22T08:45:51.605Z,80.57
2022-10-22T08:48:41.820Z,80.75
2022-10-22T08:51:12.336Z,80.69
2022-10-22T08:53:44.541Z,80.82
2022-10-22T08:56:11.509Z,80.66
2022-10-22T08:58:57.255Z,80.43
2022-10-22T09:01:35.993Z,80.34
2022-10-22T09:04:29.387Z,80.34
2022-10-22T09:06:58.406Z,80.30
2022-10-22T09:09:29.763Z,80.38
2022-10-22T09:11:58.250Z,80.49
2022-10-22T09:14:25.857Z,80.26
2022-10-22T09:17:05.808Z,80.15
2022-10-22T09:20:09.766Z,80.21
2022-10-22T09:23:01.416Z,80.09
2022-10-22T09:25:31.982Z,79.94
2022-10-22T09:27:59.225Z,80.03
2022-10-22T09:30:38.009Z,79.89
2022-10-22T09:33:14.511Z,79.92
2022-10-22T09:35:55.574Z,79.97
2022-10-22T09:38:28.304Z,79.89
2022-10-22T09:40:57.447Z,80.01
2022-10-22T09:43:24.672Z,79.91
2022-10-22T09:46:00.166Z,79.73
2022-10-22T09:48:34.643Z,79.80
2022-10-22T09:51:20.348Z,79.70
2022-10-22T09:54:02.507Z,79.80
2022-10-22T09:56:36.482Z,79.74
2022-10-22T09:59:04.162Z,79.81
2022-10-22T10:01:41.084Z,79.54
2022-10-22T10:04:10.331Z,79.45
2022-10-22T10:06:42.261Z,79.58
2022-10-22T10:09:17.423Z,79.48
2022-10-22T10:11:46.970Z,79.68
2022-10-22T10:14:25.692Z,79.54
2022-10-22T10:17:03.459Z,79.53
2022-10-22T10:19:41.342Z,79.46
2022-10-22T10:22:32.723Z,79.48
2022-10-22T10:25:18.174Z,79.50
2022-10-22T10:27:53.753Z,79.59
2022-10-22T10:30:24.113Z,79.42
2022-10-22T10:32:57.023Z,79.42
2022-10-22T10:35:30.269Z,79.63
2022-10-22T10:38:03.829Z,79.33
2022-10-22T10:40:43.811Z,79.43
2022-10-22T10:43:19.517Z,79.30
2022-10-22T10:46:29.541Z,79.25
2022-10-22T10:49:19.838Z,79.57
2022-10-22T10:51:52.681Z,79.52
2022-10-22T10:54:50.419Z,79.31
2022-10-22T10:57:43.741Z,79.32
2022-10-22T11:00:21.440Z,79.33
2022-10-22T11:03:06.997Z,79.40
2022-10-22T11:05:56.097Z,79.33
2022-10-22T11:08:25.598Z,79.40
2022-10-22T11:11:01.476Z,79.47
2022-10-22T11:13:35.564Z,79.40
2022-10-22T11:16:18.086Z,79.61
2022-10-22T11:18:49.726Z,79.29
2022-10-22T11:21:41.420Z,79.50
2022-10-22T11:24:08.355Z,79.38
2022-10-22T11:26:41.135Z,79.11
2022-10-22T11:29:13.400Z,79.27
2022-10-22T11:31:41.103Z,79.34
2022-10-22T11:34:35.557Z,79.10
2022-10-22T11:37:04.056Z,79.13
2022-10-22T11:39:53.903Z,79.11
2022-10-22T11:42:24.155Z,78.95
2022-10-22T11:45:15.906Z,78.85
2022-10-22T11:48:10.706Z,78.94
2022-10-22T11:51:04.472Z,79.10
2022-10-22T11:53:37.671Z,78.94
2022-10-22T11:56:23.634Z,78.93
2022-10-22T11:58:53.962Z,78.87
2022-10-22T12:01:27.584Z,78.88
2022-10-22T12:04:14.521Z,78.88
2022-10-22T12:07:01.920Z,78.60
2022-10-22T12:09:32.346Z,78.67
2022-10-22T12:12:14.467Z,78.92
2022-10-22T12:15:00.363Z,78.91
2022-10-22T12:17:28.899Z,78.65
2022-10-22T12:19:58.501Z,78.64
2022-10-22T12:22:30.255Z,78.68
2022-10-22T12:25:04.030Z,78.94
2022-10-22T12:27:39.564Z,78.73
2022-10-22T12:30:24.836Z,78.81
2022-10-22T12:32:54.389Z,78.97
2022-10-22T12:35:24.292Z,78.92
2022-10-22T12:38:18.802Z,78.93
2022-10-22T12:40:48.446Z,78.92
2022-10-22T12:43:19.915Z,79.22
2022-10-22T12:45:48.473Z,79.04
2022-10-22T12:48:23.614Z,79.29
2022-10-22T12:50:55.676Z,79.21
2022-10-22T12:53:25.562Z,79.20
2022-10-22T12:55:53.989Z,79.27
2022-10-22T12:58:29.282Z,79.09
2022-10-22T13:00:58.733Z,79.46
2022-10-22T13:03:29.755Z,79.35
2022-10-22T13:05:56.862Z,79.28
2022-10-22T13:08:27.643Z,79.20
2022-10-22T13:10:55.923Z,79.33
2022-10-22T13:13:31.290Z,79.36
2022-10-22T13:16:33.764Z,79.32
2022-10-22T13:19:00.784Z,79.45
2022-10-22T13:21:34.881Z,79.54
2022-10-22T13:24:04.180Z,79.66
2022-10-22T13:26:36.863Z,79.74
2022-10-22T13:29:10.905Z,79.85
2022-10-22T13:31:48.751Z,79.63
2022-10-22T13:34:21.344Z,79.74
2022-10-22T13:36:49.190Z,79.68
2022-10-22T13:39:21.552Z,80.00
2022-10-22T13:41:50.646Z,79.84
2022-10-22T13:44:18.962Z,79.86
2022-10-22T13:46:47.297Z,79.84
2022-10-22T13:49:19.361Z,80.11
2022-10-22T13:51:47.373Z,79.92
2022-10-22T13:54:17.516Z,79.96
2022-10-22T13:56:44.561Z,80.03
2022-10-22T13:59:11.981Z,80.19
2022-10-22T14:01:39.257Z,80.29
2022-10-22T14:04:08.337Z,80.33
2022-10-22T14:09:06.336Z,80.43
2022-10-22T14:11:35.237Z,80.32
2022-10-22T14:14:04.995Z,80.67
2022-10-22T14:16:33.334Z,80.69
2022-10-22T14:19:01.570Z,80.42
2022-10-22T14:21:35.576Z,80.79
2022-10-22T14:24:02.519Z,80.56
2022-10-22T14:26:33.207Z,80.51
2022-10-22T14:29:09.902Z,80.61
2022-10-22T14:31:42.079Z,81.05
2022-10-22T14:34:14.756Z,80.78
2022-10-22T14:36:44.036Z,80.79
2022-10-22T14:39:11.954Z,80.81
2022-10-22T14:41:39.324Z,80.98
2022-10-22T14:44:06.305Z,81.09
2022-10-22T14:46:33.888Z,81.04
2022-10-22T14:49:00.804Z,81.10
2022-10-22T14:51:27.864Z,81.22
2022-10-22T14:53:55.062Z,81.09
2022-10-22T14:56:22.200Z,81.26
2022-10-22T15:02:26.624Z,81.28
2022-10-22T15:04:53.977Z,81.31
2022-10-22T15:07:21.746Z,81.60
2022-10-22T15:09:48.840Z,81.69
2022-10-22T15:12:15.937Z,81.47
2022-10-22T15:14:43.077Z,81.68
2022-10-22T15:17:10.295Z,81.56
2022-10-22T15:19:37.379Z,81.71
2022-10-22T15:22:06.272Z,81.79
2022-10-22T15:24:33.915Z,81.61
2022-10-22T15:27:03.472Z,81.98
2022-10-22T15:29:32.717Z,81.69
2022-10-22T15:32:01.148Z,81.74
2022-10-22T15:34:35.586Z,81.93
2022-10-22T15:37:04.959Z,81.77
2022-10-22T15:39:32.551Z,81.79
2022-10-22T15:42:00.232Z,81.94
2022-10-22T15:44:30.182Z,82.13
2022-10-22T15:46:58.027Z,81.90
2022-10-22T15:49:29.667Z,82.19
2022-10-22T15:51:57.181Z,82.12
2022-10-22T15:54:26.580Z,82.23
2022-10-22T15:56:53.614Z,82.11
2022-10-22T15:59:20.761Z,82.33
2022-10-22T16:01:48.487Z,82.04
2022-10-22T16:04:15.899Z,82.29
2022-10-22T16:06:45.652Z,82.34
2022-10-22T16:09:17.931Z,82.52
2022-10-22T16:11:45.828Z,82.34
2022-10-22T16:14:15.095Z,82.22
2022-10-22T16:16:44.777Z,82.49
2022-10-22T16:19:13.217Z,82.70
2022-10-22T16:21:40.556Z,82.53
2022-10-22T16:24:08.448Z,82.33
2022-10-22T16:26:36.217Z,82.51
2022-10-22T16:29:03.897Z,82.59
2022-10-22T16:31:31.152Z,82.56
2022-10-22T16:33:58.694Z,82.96
2022-10-22T16:36:25.960Z,83.02
2022-10-22T16:38:52.901Z,82.98
2022-10-22T16:41:22.467Z,83.01
2022-10-22T16:43:52.382Z,82.82
2022-10-22T16:46:21.365Z,82.91
2022-10-22T16:48:50.277Z,82.76
2022-10-22T16:51:19.969Z,83.09
2022-10-22T16:53:47.097Z,82.91
2022-10-22T16:56:15.511Z,82.74
2022-10-22T16:58:48.366Z,82.83
2022-10-22T17:01:18.148Z,82.92
2022-10-22T17:03:45.687Z,83.08
2022-10-22T17:06:12.836Z,82.62
2022-10-22T17:08:41.163Z,82.96
2022-10-22T17:11:13.142Z,83.32
2022-10-22T17:13:44.493Z,83.25
2022-10-22T17:16:14.070Z,83.15
2022-10-22T17:18:41.966Z,83.19
2022-10-22T17:21:10.326Z,83.36
2022-10-22T17:23:37.993Z,83.29
2022-10-22T17:26:09.979Z,83.21
2022-10-22T17:28:37.101Z,83.17
2022-10-22T17:31:32.724Z,83.30
2022-10-22T17:34:02.600Z,83.35
2022-10-22T17:36:33.305Z,83.70
2022-10-22T17:39:05.958Z,83.36
2022-10-22T17:41:35.438Z,83.64
2022-10-22T17:44:04.479Z,83.77
2022-10-22T17:46:32.358Z,83.58
2022-10-22T17:49:04.896Z,83.78
2022-10-22T17:51:32.296Z,83.70
2022-10-22T17:53:59.449Z,83.53
2022-10-22T17:56:30.285Z,83.56
2022-10-22T17:58:58.791Z,83.83
2022-10-22T18:01:29.161Z,83.44
2022-10-22T18:04:00.676Z,83.56
2022-10-22T18:06:28.725Z,83.75
2022-10-22T18:08:56.259Z,83.76
2022-10-22T18:11:26.859Z,83.72
2022-10-22T18:13:57.943Z,83.91
2022-10-22T18:16:26.612Z,83.73
2022-10-22T18:18:57.076Z,83.76
2022-10-22T18:21:26.372Z,83.63
2022-10-22T18:23:53.745Z,83.76
2022-10-22T18:26:25.833Z,83.69
2022-10-22T18:28:55.352Z,83.89
2022-10-22T18:31:24.625Z,84.04
2022-10-22T18:33:51.670Z,83.68
2022-10-22T18:36:22.107Z,83.86
2022-10-22T18:38:58.410Z,83.68
2022-10-22T18:41:26.354Z,83.92
2022-10-22T18:44:01.627Z,84.06
2022-10-22T18:46:29.635Z,84.03
2022-10-22T18:48:57.386Z,84.15
2022-10-22T18:51:25.981Z,83.74
2022-10-22T18:54:11.225Z,83.83
2022-10-22T18:56:42.230Z,84.06
2022-10-22T18:59:21.207Z,83.85
2022-10-22T19:01:48.766Z,83.96
2022-10-22T19:04:15.770Z,83.73
2022-10-22T19:06:45.517Z,83.82
2022-10-22T19:09:14.959Z,83.88
2022-10-22T19:11:43.928Z,84.15
2022-10-22T19:14:11.687Z,84.08
2022-10-22T19:16:38.875Z,84.13
2022-10-22T19:19:08.223Z,83.76
2022-10-22T19:21:39.391Z,84.11
2022-10-22T19:24:07.518Z,83.91
2022-10-22T19:26:34.828Z,84.00
2022-10-22T19:29:02.048Z,83.77
2022-10-22T19:31:31.430Z,84.13
2022-10-22T19:34:00.879Z,83.78
2022-10-22T19:36:28.874Z,83.93
2022-10-22T19:38:57.330Z,83.70
2022-10-22T19:41:26.398Z,83.77
2022-10-22T19:43:54.812Z,83.99
2022-10-22T19:46:23.388Z,83.73
2022-10-22T19:48:52.764Z,83.62
2022-10-22T19:51:30.067Z,83.82
2022-10-22T19:54:02.895Z,83.98
2022-10-22T19:56:30.488Z,83.72
2022-10-22T19:58:58.328Z,83.70
2022-10-22T20:01:26.202Z,83.81
2022-10-22T20:03:53.797Z,83.88
2022-10-22T20:06:21.992Z,83.92
2022-10-22T20:08:51.127Z,83.74
2022-10-22T20:11:22.097Z,83.90
2022-10-22T20:13:52.216Z,83.71
2022-10-22T20:16:25.276Z,83.83
2022-10-22T20:18:52.987Z,83.73
2022-10-22T20:21:20.558Z,83.81
2022-10-22T20:23:48.273Z,83.64
2022-10-22T20:26:15.358Z,83.76
2022-10-22T20:28:42.536Z,83.52
2022-10-22T20:31:13.821Z,83.35
2022-10-22T20:33:40.859Z,83.26
2022-10-22T20:36:12.741Z,83.50
2022-10-22T20:38:39.833Z,83.22
2022-10-22T20:41:10.517Z,83.30
2022-10-22T20:43:37.725Z,83.55
2022-10-22T20:46:04.941Z,83.05
2022-10-22T20:48:32.210Z,83.35
2022-10-22T20:51:00.270Z,83.15
2022-10-22T20:53:27.751Z,82.94
2022-10-22T20:55:57.341Z,82.96
2022-10-22T20:58:26.825Z,83.05
2022-10-22T21:00:55.279Z,83.17
2022-10-22T21:03:23.083Z,83.03
2022-10-22T21:05:50.137Z,82.88
2022-10-22T21:08:17.816Z,82.88
2022-10-22T21:10:49.294Z,82.85
2022-10-22T21:13:16.974Z,83.16
2022-10-22T21:15:43.912Z,82.57
2022-10-22T21:18:11.160Z,82.87
2022-10-22T21:20:41.161Z,82.77
2022-10-22T21:23:08.372Z,82.93
2022-10-22T21:25:39.507Z,82.64
2022-10-22T21:28:09.051Z,82.84
2022-10-22T21:30:36.043Z,82.69
2022-10-22T21:33:03.072Z,82.84
2022-10-22T21:35:29.959Z,82.71
2022-10-22T21:37:56.871Z,82.47
2022-10-22T21:40:23.901Z,82.59
2022-10-22T21:42:51.144Z,82.79
2022-10-22T21:45:22.089Z,82.57
2022-10-22T21:47:49.416Z,82.74
2022-10-22T21:50:16.335Z,82.72
2022-10-22T21:52:43.325Z,82.86
2022-10-22T21:55:10.365Z,82.90
2022-10-22T21:57:37.672Z,82.85
2022-10-22T22:00:07.139Z,82.70
2022-10-22T22:02:34.242Z,82.71
2022-10-22T22:05:01.147Z,82.77
2022-10-22T22:07:28.062Z,82.85
2022-10-22T22:09:55.173Z,82.66
2022-10-22T22:12:22.069Z,82.75
2022-10-22T22:14:49.094Z,82.83
2022-10-22T22:17:16.644Z,82.74
2022-10-22T22:19:43.703Z,82.54
2022-10-22T22:22:10.820Z,82.54
2022-10-22T22:24:39.788Z,82.90
2022-10-22T22:27:07.186Z,82.83
2022-10-22T22:29:34.500Z,82.47
2022-10-22T22:32:01.417Z,82.48
2022-10-22T22:34:28.418Z,82.64
2022-10-22T22:36:55.383Z,82.80
2022-10-22T22:39:23.528Z,82.58
2022-10-22T22:41:50.542Z,82.93
2022-10-22T22:44:18.062Z,82.60
2022-10-22T22:46:45.060Z,82.59
2022-10-22T22:49:13.283Z,82.69
2022-10-22T22:51:40.228Z,82.91
2022-10-22T22:54:07.188Z,82.60
2022-10-22T22:56:37.128Z,82.73
2022-10-22T22:59:05.276Z,82.65
2022-10-22T23:01:34.537Z,82.56
2022-10-22T23:04:07.270Z,82.76
2022-10-22T23:06:36.313Z,82.72
2022-10-22T23:09:07.798Z,82.67
2022-10-22T23:11:35.110Z,82.45
2022-10-22T23:14:04.194Z,82.45
2022-10-22T23:16:33.363Z,82.70
2022-10-22T23:19:01.184Z,82.39
2022-10-22T23:21:37.425Z,82.52
2022-10-22T23:24:07.820Z,82.43
2022-10-22T23:26:37.799Z,82.30
2022-10-22T23:29:07.329Z,82.60
2022-10-22T23:31:34.579Z,82.50
2022-10-22T23:34:01.780Z,82.57
2022-10-22T23:36:28.968Z,82.48
2022-10-22T23:38:56.259Z,82.33
2022-10-22T23:41:24.037Z,82.50
2022-10-22T23:43:51.122Z,82.15
2022-10-22T23:46:18.025Z,82.41
2022-10-22T23:48:45.529Z,82.08
2022-10-22T23:51:14.728Z,82.08
2022-10-22T23:53:43.010Z,82.13
2022-10-22T23:56:12.935Z,82.26
2022-10-22T23:58:39.958Z,82.07
